74P weather

Calvada Meadows Airport
Pahrump, Nevada, United States

Public forecast

Using degrees Fahrenheit for public forecast. Weather courtesy of forecast.io.

METAR (pilot weather report)

Closest report is Desert Rock Airport, 21.0 nm (38.9 km) N. Retrieved 2019/03/21 00:56 UTC (13 minutes ago):

KDRA 210056Z AUTO 10016G19KT 10SM SCT040 BKN090 OVC110 11/05 A2995 RMK AO2 SLP120 T01060050

TAF (pilot weather forecast)

Forecast is more than 12 hours old.

Closest forecast is Desert Rock Airport, 21.0 nm (38.9 km) N. Retrieved 2011/12/07 06:36 UTC (7 years ago):

TAF KDRA 070532Z 0706/0806 VRB04KT P6SM SKC